sensor_id;sensor_type;location;lat;lon;timestamp;P1;durP1;ratioP1;P2;durP2;ratioP2
4698;SDS011;33708;49.466;11.176;2022-07-18T00:01:03;9.23;;;2.07;;
4698;SDS011;33708;49.466;11.176;2022-07-18T00:03:28;8.30;;;2.10;;
4698;SDS011;33708;49.466;11.176;2022-07-18T00:05:54;7.60;;;2.17;;
4698;SDS011;33708;49.466;11.176;2022-07-18T00:08:19;9.20;;;2.30;;
4698;SDS011;33708;49.466;11.176;2022-07-18T00:10:45;15.03;;;2.30;;
4698;SDS011;33708;49.466;11.176;2022-07-18T00:13:11;6.30;;;1.83;;
4698;SDS011;33708;49.466;11.176;2022-07-18T00:15:36;5.60;;;1.80;;
4698;SDS011;33708;49.466;11.176;2022-07-18T00:18:02;5.77;;;2.13;;
4698;SDS011;33708;49.466;11.176;2022-07-18T00:20:28;5.90;;;1.90;;
4698;SDS011;33708;49.466;11.176;2022-07-18T00:22:54;8.27;;;2.30;;
4698;SDS011;33708;49.466;11.176;2022-07-18T00:25:20;8.77;;;1.77;;
4698;SDS011;33708;49.466;11.176;2022-07-18T00:27:46;6.30;;;2.00;;
4698;SDS011;33708;49.466;11.176;2022-07-18T00:30:12;8.43;;;1.80;;
4698;SDS011;33708;49.466;11.176;2022-07-18T00:32:38;6.40;;;1.60;;
4698;SDS011;33708;49.466;11.176;2022-07-18T00:35:04;5.80;;;2.10;;
4698;SDS011;33708;49.466;11.176;2022-07-18T00:37:30;14.23;;;2.13;;
4698;SDS011;33708;49.466;11.176;2022-07-18T00:39:55;6.37;;;2.03;;
4698;SDS011;33708;49.466;11.176;2022-07-18T00:42:21;7.93;;;2.13;;
4698;SDS011;33708;49.466;11.176;2022-07-18T00:44:47;6.57;;;1.90;;
4698;SDS011;33708;49.466;11.176;2022-07-18T00:47:16;7.50;;;2.33;;
4698;SDS011;33708;49.466;11.176;2022-07-18T00:49:42;8.40;;;2.17;;
4698;SDS011;33708;49.466;11.176;2022-07-18T00:52:08;8.60;;;2.00;;
4698;SDS011;33708;49.466;11.176;2022-07-18T00:54:33;8.27;;;1.90;;
4698;SDS011;33708;49.466;11.176;2022-07-18T00:56:59;6.27;;;2.13;;
4698;SDS011;33708;49.466;11.176;2022-07-18T00:59:25;7.60;;;1.73;;
4698;SDS011;33708;49.466;11.176;2022-07-18T01:02:11;8.40;;;2.03;;
4698;SDS011;33708;49.466;11.176;2022-07-18T01:04:37;8.13;;;1.90;;
4698;SDS011;33708;49.466;11.176;2022-07-18T01:07:02;9.43;;;1.87;;
4698;SDS011;33708;49.466;11.176;2022-07-18T01:09:28;10.10;;;2.20;;
4698;SDS011;33708;49.466;11.176;2022-07-18T01:11:54;7.27;;;2.27;;
4698;SDS011;33708;49.466;11.176;2022-07-18T01:14:20;6.70;;;2.30;;
4698;SDS011;33708;49.466;11.176;2022-07-18T01:16:45;12.83;;;2.70;;
4698;SDS011;33708;49.466;11.176;2022-07-18T01:19:11;8.73;;;2.10;;
4698;SDS011;33708;49.466;11.176;2022-07-18T01:21:37;6.30;;;2.30;;
4698;SDS011;33708;49.466;11.176;2022-07-18T01:24:04;7.60;;;2.00;;
4698;SDS011;33708;49.466;11.176;2022-07-18T01:26:30;8.13;;;1.93;;
4698;SDS011;33708;49.466;11.176;2022-07-18T01:28:55;6.80;;;1.90;;
4698;SDS011;33708;49.466;11.176;2022-07-18T01:31:21;9.40;;;2.17;;
4698;SDS011;33708;49.466;11.176;2022-07-18T01:33:47;6.50;;;1.80;;
4698;SDS011;33708;49.466;11.176;2022-07-18T01:36:12;7.60;;;2.40;;
4698;SDS011;33708;49.466;11.176;2022-07-18T01:38:38;7.07;;;2.20;;
4698;SDS011;33708;49.466;11.176;2022-07-18T01:41:07;7.10;;;1.80;;
4698;SDS011;33708;49.466;11.176;2022-07-18T01:43:33;8.60;;;2.10;;
4698;SDS011;33708;49.466;11.176;2022-07-18T01:45:59;7.80;;;2.33;;
4698;SDS011;33708;49.466;11.176;2022-07-18T01:48:26;14.10;;;2.60;;
4698;SDS011;33708;49.466;11.176;2022-07-18T01:50:52;6.80;;;2.40;;
4698;SDS011;33708;49.466;11.176;2022-07-18T01:53:18;6.90;;;2.43;;
4698;SDS011;33708;49.466;11.176;2022-07-18T01:55:43;8.80;;;2.80;;
4698;SDS011;33708;49.466;11.176;2022-07-18T01:58:09;9.50;;;2.90;;
4698;SDS011;33708;49.466;11.176;2022-07-18T02:00:35;18.40;;;3.17;;
4698;SDS011;33708;49.466;11.176;2022-07-18T02:03:00;9.40;;;2.53;;
4698;SDS011;33708;49.466;11.176;2022-07-18T02:05:26;9.67;;;3.40;;
4698;SDS011;33708;49.466;11.176;2022-07-18T02:07:52;12.03;;;3.57;;
4698;SDS011;33708;49.466;11.176;2022-07-18T02:10:19;11.33;;;3.50;;
4698;SDS011;33708;49.466;11.176;2022-07-18T02:12:46;10.27;;;3.50;;
4698;SDS011;33708;49.466;11.176;2022-07-18T02:15:12;10.10;;;3.13;;
4698;SDS011;33708;49.466;11.176;2022-07-18T02:17:39;8.70;;;3.07;;
4698;SDS011;33708;49.466;11.176;2022-07-18T02:20:06;10.23;;;3.43;;
4698;SDS011;33708;49.466;11.176;2022-07-18T02:22:34;13.70;;;3.80;;
4698;SDS011;33708;49.466;11.176;2022-07-18T02:25:00;10.23;;;3.30;;
4698;SDS011;33708;49.466;11.176;2022-07-18T02:27:26;11.30;;;3.33;;
4698;SDS011;33708;49.466;11.176;2022-07-18T02:29:51;11.37;;;4.23;;
4698;SDS011;33708;49.466;11.176;2022-07-18T02:32:17;12.80;;;4.10;;
4698;SDS011;33708;49.466;11.176;2022-07-18T02:34:43;12.73;;;3.60;;
4698;SDS011;33708;49.466;11.176;2022-07-18T02:37:09;10.17;;;3.40;;
4698;SDS011;33708;49.466;11.176;2022-07-18T02:39:35;15.43;;;3.50;;
4698;SDS011;33708;49.466;11.176;2022-07-18T02:42:02;12.23;;;3.40;;
4698;SDS011;33708;49.466;11.176;2022-07-18T02:44:28;8.73;;;3.00;;
4698;SDS011;33708;49.466;11.176;2022-07-18T02:46:53;10.03;;;3.27;;
4698;SDS011;33708;49.466;11.176;2022-07-18T02:49:19;9.67;;;2.70;;
4698;SDS011;33708;49.466;11.176;2022-07-18T02:51:55;8.70;;;3.30;;
4698;SDS011;33708;49.466;11.176;2022-07-18T02:54:23;8.23;;;3.43;;
4698;SDS011;33708;49.466;11.176;2022-07-18T02:56:49;8.20;;;2.43;;
4698;SDS011;33708;49.466;11.176;2022-07-18T02:59:15;7.10;;;2.73;;
4698;SDS011;33708;49.466;11.176;2022-07-18T03:01:40;8.77;;;2.90;;
4698;SDS011;33708;49.466;11.176;2022-07-18T03:04:06;10.40;;;2.67;;
4698;SDS011;33708;49.466;11.176;2022-07-18T03:06:31;10.40;;;2.70;;
4698;SDS011;33708;49.466;11.176;2022-07-18T03:08:57;8.53;;;2.53;;
4698;SDS011;33708;49.466;11.176;2022-07-18T03:11:23;12.60;;;2.77;;
4698;SDS011;33708;49.466;11.176;2022-07-18T03:13:48;10.13;;;2.53;;
4698;SDS011;33708;49.466;11.176;2022-07-18T03:16:14;7.20;;;2.20;;
4698;SDS011;33708;49.466;11.176;2022-07-18T03:18:39;7.20;;;2.70;;
4698;SDS011;33708;49.466;11.176;2022-07-18T03:21:05;11.43;;;2.90;;
4698;SDS011;33708;49.466;11.176;2022-07-18T03:23:31;8.20;;;3.10;;
4698;SDS011;33708;49.466;11.176;2022-07-18T03:25:56;9.40;;;2.70;;
4698;SDS011;33708;49.466;11.176;2022-07-18T03:28:22;8.07;;;2.47;;
4698;SDS011;33708;49.466;11.176;2022-07-18T03:30:47;8.27;;;2.53;;
4698;SDS011;33708;49.466;11.176;2022-07-18T03:33:13;9.90;;;3.00;;
4698;SDS011;33708;49.466;11.176;2022-07-18T03:35:39;5.97;;;1.80;;
4698;SDS011;33708;49.466;11.176;2022-07-18T03:38:04;8.80;;;2.20;;
4698;SDS011;33708;49.466;11.176;2022-07-18T03:40:31;5.90;;;2.20;;
4698;SDS011;33708;49.466;11.176;2022-07-18T03:42:56;7.90;;;2.33;;
4698;SDS011;33708;49.466;11.176;2022-07-18T03:45:22;6.70;;;2.70;;
4698;SDS011;33708;49.466;11.176;2022-07-18T03:47:48;6.80;;;2.57;;
4698;SDS011;33708;49.466;11.176;2022-07-18T03:50:13;7.27;;;2.40;;
4698;SDS011;33708;49.466;11.176;2022-07-18T03:52:39;7.90;;;2.90;;
4698;SDS011;33708;49.466;11.176;2022-07-18T03:55:05;7.07;;;2.30;;
4698;SDS011;33708;49.466;11.176;2022-07-18T03:57:30;8.27;;;2.30;;
4698;SDS011;33708;49.466;11.176;2022-07-18T03:59:56;9.40;;;2.70;;
4698;SDS011;33708;49.466;11.176;2022-07-18T04:02:22;11.23;;;7.07;;
4698;SDS011;33708;49.466;11.176;2022-07-18T04:04:47;16.90;;;15.40;;
4698;SDS011;33708;49.466;11.176;2022-07-18T04:07:13;19.10;;;17.50;;
4698;SDS011;33708;49.466;11.176;2022-07-18T04:09:38;1999.90;;;999.90;;
4698;SDS011;33708;49.466;11.176;2022-07-18T04:12:04;1999.90;;;999.90;;
4698;SDS011;33708;49.466;11.176;2022-07-18T04:14:30;1999.90;;;999.90;;
4698;SDS011;33708;49.466;11.176;2022-07-18T04:16:56;1999.90;;;999.90;;
4698;SDS011;33708;49.466;11.176;2022-07-18T04:19:21;22.23;;;20.00;;
4698;SDS011;33708;49.466;11.176;2022-07-18T04:21:48;13.33;;;11.93;;
4698;SDS011;33708;49.466;11.176;2022-07-18T04:24:14;11.67;;;9.63;;
4698;SDS011;33708;49.466;11.176;2022-07-18T04:26:40;8.50;;;4.90;;
4698;SDS011;33708;49.466;11.176;2022-07-18T04:29:05;7.93;;;4.10;;
4698;SDS011;33708;49.466;11.176;2022-07-18T04:31:31;7.77;;;3.20;;
4698;SDS011;33708;49.466;11.176;2022-07-18T04:33:57;9.83;;;2.23;;
4698;SDS011;33708;49.466;11.176;2022-07-18T04:36:22;10.20;;;2.73;;
4698;SDS011;33708;49.466;11.176;2022-07-18T04:38:48;11.37;;;3.43;;
4698;SDS011;33708;49.466;11.176;2022-07-18T04:41:13;8.37;;;2.90;;
4698;SDS011;33708;49.466;11.176;2022-07-18T04:43:39;7.17;;;2.47;;
4698;SDS011;33708;49.466;11.176;2022-07-18T04:46:05;6.90;;;2.03;;
4698;SDS011;33708;49.466;11.176;2022-07-18T04:48:33;5.93;;;2.17;;
4698;SDS011;33708;49.466;11.176;2022-07-18T04:50:59;8.20;;;2.40;;
4698;SDS011;33708;49.466;11.176;2022-07-18T04:53:24;7.80;;;2.20;;
4698;SDS011;33708;49.466;11.176;2022-07-18T04:55:50;7.40;;;2.47;;
4698;SDS011;33708;49.466;11.176;2022-07-18T04:58:16;7.60;;;2.17;;
4698;SDS011;33708;49.466;11.176;2022-07-18T05:00:41;6.80;;;2.00;;
4698;SDS011;33708;49.466;11.176;2022-07-18T05:03:07;7.37;;;2.40;;
4698;SDS011;33708;49.466;11.176;2022-07-18T05:05:33;6.07;;;1.67;;
4698;SDS011;33708;49.466;11.176;2022-07-18T05:07:58;7.60;;;2.43;;
4698;SDS011;33708;49.466;11.176;2022-07-18T05:10:24;11.07;;;2.50;;
4698;SDS011;33708;49.466;11.176;2022-07-18T05:12:51;7.10;;;2.00;;
4698;SDS011;33708;49.466;11.176;2022-07-18T05:15:18;6.70;;;2.13;;
4698;SDS011;33708;49.466;11.176;2022-07-18T05:17:45;11.33;;;2.30;;
4698;SDS011;33708;49.466;11.176;2022-07-18T05:20:13;6.30;;;2.07;;
4698;SDS011;33708;49.466;11.176;2022-07-18T05:22:41;6.00;;;1.90;;
4698;SDS011;33708;49.466;11.176;2022-07-18T05:25:07;6.90;;;2.00;;
4698;SDS011;33708;49.466;11.176;2022-07-18T05:27:34;8.63;;;2.60;;
4698;SDS011;33708;49.466;11.176;2022-07-18T05:30:00;8.97;;;2.40;;
4698;SDS011;33708;49.466;11.176;2022-07-18T05:32:27;7.53;;;2.60;;
4698;SDS011;33708;49.466;11.176;2022-07-18T05:34:53;12.57;;;2.67;;
4698;SDS011;33708;49.466;11.176;2022-07-18T05:37:18;8.57;;;2.13;;
4698;SDS011;33708;49.466;11.176;2022-07-18T05:39:44;8.30;;;2.57;;
4698;SDS011;33708;49.466;11.176;2022-07-18T05:42:10;7.67;;;2.57;;
4698;SDS011;33708;49.466;11.176;2022-07-18T05:44:35;11.50;;;1.87;;
4698;SDS011;33708;49.466;11.176;2022-07-18T05:47:01;7.73;;;2.60;;
4698;SDS011;33708;49.466;11.176;2022-07-18T05:49:27;8.60;;;2.60;;
4698;SDS011;33708;49.466;11.176;2022-07-18T05:51:52;7.50;;;2.40;;
4698;SDS011;33708;49.466;11.176;2022-07-18T05:54:18;9.40;;;2.70;;
4698;SDS011;33708;49.466;11.176;2022-07-18T05:56:46;11.57;;;3.40;;
4698;SDS011;33708;49.466;11.176;2022-07-18T05:59:12;7.87;;;2.70;;
4698;SDS011;33708;49.466;11.176;2022-07-18T06:01:38;9.87;;;3.30;;
4698;SDS011;33708;49.466;11.176;2022-07-18T06:04:04;8.60;;;2.87;;
4698;SDS011;33708;49.466;11.176;2022-07-18T06:06:30;12.73;;;3.63;;
4698;SDS011;33708;49.466;11.176;2022-07-18T06:08:56;12.20;;;2.83;;
4698;SDS011;33708;49.466;11.176;2022-07-18T06:11:22;14.50;;;2.87;;
4698;SDS011;33708;49.466;11.176;2022-07-18T06:13:47;10.37;;;2.87;;
4698;SDS011;33708;49.466;11.176;2022-07-18T06:16:13;8.40;;;2.40;;
4698;SDS011;33708;49.466;11.176;2022-07-18T06:18:39;10.97;;;2.87;;
4698;SDS011;33708;49.466;11.176;2022-07-18T06:21:04;13.80;;;2.77;;
4698;SDS011;33708;49.466;11.176;2022-07-18T06:23:30;7.93;;;2.60;;
4698;SDS011;33708;49.466;11.176;2022-07-18T06:25:56;12.47;;;3.07;;
4698;SDS011;33708;49.466;11.176;2022-07-18T06:28:22;10.93;;;3.03;;
4698;SDS011;33708;49.466;11.176;2022-07-18T06:30:50;7.83;;;2.40;;
4698;SDS011;33708;49.466;11.176;2022-07-18T06:33:16;14.70;;;2.70;;
4698;SDS011;33708;49.466;11.176;2022-07-18T06:35:42;8.97;;;2.27;;
4698;SDS011;33708;49.466;11.176;2022-07-18T06:38:08;10.20;;;3.03;;
4698;SDS011;33708;49.466;11.176;2022-07-18T06:40:33;11.70;;;2.20;;
4698;SDS011;33708;49.466;11.176;2022-07-18T06:42:59;6.60;;;2.00;;
4698;SDS011;33708;49.466;11.176;2022-07-18T06:45:24;7.50;;;2.00;;
4698;SDS011;33708;49.466;11.176;2022-07-18T06:47:50;8.10;;;2.20;;
4698;SDS011;33708;49.466;11.176;2022-07-18T06:50:16;7.83;;;2.70;;
4698;SDS011;33708;49.466;11.176;2022-07-18T06:52:43;11.53;;;2.50;;
4698;SDS011;33708;49.466;11.176;2022-07-18T06:55:10;21.90;;;2.60;;
4698;SDS011;33708;49.466;11.176;2022-07-18T06:57:38;14.73;;;2.77;;
4698;SDS011;33708;49.466;11.176;2022-07-18T07:00:04;8.03;;;2.40;;
4698;SDS011;33708;49.466;11.176;2022-07-18T07:02:33;13.47;;;2.67;;
4698;SDS011;33708;49.466;11.176;2022-07-18T07:04:58;9.03;;;2.43;;
4698;SDS011;33708;49.466;11.176;2022-07-18T07:07:24;15.70;;;2.30;;
4698;SDS011;33708;49.466;11.176;2022-07-18T07:09:49;9.20;;;2.83;;
4698;SDS011;33708;49.466;11.176;2022-07-18T07:12:15;9.77;;;3.00;;
4698;SDS011;33708;49.466;11.176;2022-07-18T07:14:41;8.87;;;2.40;;
4698;SDS011;33708;49.466;11.176;2022-07-18T07:17:06;9.63;;;2.57;;
4698;SDS011;33708;49.466;11.176;2022-07-18T07:19:32;7.57;;;2.17;;
4698;SDS011;33708;49.466;11.176;2022-07-18T07:21:57;21.63;;;2.90;;
4698;SDS011;33708;49.466;11.176;2022-07-18T07:24:23;13.40;;;2.63;;
4698;SDS011;33708;49.466;11.176;2022-07-18T07:26:49;9.43;;;2.60;;
4698;SDS011;33708;49.466;11.176;2022-07-18T07:29:15;14.93;;;2.50;;
4698;SDS011;33708;49.466;11.176;2022-07-18T07:31:41;8.30;;;2.60;;
4698;SDS011;33708;49.466;11.176;2022-07-18T07:34:07;11.63;;;2.90;;
4698;SDS011;33708;49.466;11.176;2022-07-18T07:36:34;11.80;;;2.87;;
4698;SDS011;33708;49.466;11.176;2022-07-18T07:39:00;6.17;;;2.30;;
4698;SDS011;33708;49.466;11.176;2022-07-18T07:41:26;8.23;;;2.53;;
4698;SDS011;33708;49.466;11.176;2022-07-18T07:43:51;6.30;;;1.83;;
4698;SDS011;33708;49.466;11.176;2022-07-18T07:46:17;11.30;;;2.47;;
4698;SDS011;33708;49.466;11.176;2022-07-18T07:48:43;15.03;;;2.80;;
4698;SDS011;33708;49.466;11.176;2022-07-18T07:51:09;13.00;;;2.47;;
4698;SDS011;33708;49.466;11.176;2022-07-18T07:53:35;8.70;;;2.80;;
4698;SDS011;33708;49.466;11.176;2022-07-18T07:56:00;10.67;;;2.57;;
4698;SDS011;33708;49.466;11.176;2022-07-18T07:58:26;11.60;;;3.20;;
4698;SDS011;33708;49.466;11.176;2022-07-18T08:00:52;12.00;;;2.60;;
4698;SDS011;33708;49.466;11.176;2022-07-18T08:03:17;10.33;;;3.10;;
4698;SDS011;33708;49.466;11.176;2022-07-18T08:05:47;8.10;;;3.30;;
4698;SDS011;33708;49.466;11.176;2022-07-18T08:08:14;9.40;;;3.20;;
4698;SDS011;33708;49.466;11.176;2022-07-18T08:10:41;19.83;;;3.10;;
4698;SDS011;33708;49.466;11.176;2022-07-18T08:13:07;11.40;;;3.40;;
4698;SDS011;33708;49.466;11.176;2022-07-18T08:15:33;11.70;;;2.70;;
4698;SDS011;33708;49.466;11.176;2022-07-18T08:17:59;11.50;;;3.20;;
4698;SDS011;33708;49.466;11.176;2022-07-18T08:20:25;9.07;;;2.73;;
4698;SDS011;33708;49.466;11.176;2022-07-18T08:22:51;10.47;;;2.73;;
4698;SDS011;33708;49.466;11.176;2022-07-18T08:25:18;9.30;;;3.10;;
4698;SDS011;33708;49.466;11.176;2022-07-18T08:27:44;9.10;;;2.47;;
4698;SDS011;33708;49.466;11.176;2022-07-18T08:30:10;12.60;;;2.30;;
4698;SDS011;33708;49.466;11.176;2022-07-18T08:32:36;10.53;;;2.30;;
4698;SDS011;33708;49.466;11.176;2022-07-18T08:35:01;12.07;;;2.80;;
4698;SDS011;33708;49.466;11.176;2022-07-18T08:37:27;9.20;;;2.70;;
4698;SDS011;33708;49.466;11.176;2022-07-18T08:39:53;8.20;;;2.53;;
4698;SDS011;33708;49.466;11.176;2022-07-18T08:42:19;7.83;;;2.37;;
4698;SDS011;33708;49.466;11.176;2022-07-18T08:44:50;8.70;;;2.90;;
4698;SDS011;33708;49.466;11.176;2022-07-18T08:47:17;8.87;;;2.77;;
4698;SDS011;33708;49.466;11.176;2022-07-18T08:49:44;7.97;;;2.53;;
4698;SDS011;33708;49.466;11.176;2022-07-18T08:52:10;10.40;;;2.40;;
4698;SDS011;33708;49.466;11.176;2022-07-18T08:54:37;9.33;;;2.20;;
4698;SDS011;33708;49.466;11.176;2022-07-18T08:57:02;7.37;;;2.33;;
4698;SDS011;33708;49.466;11.176;2022-07-18T08:59:28;8.93;;;2.70;;
4698;SDS011;33708;49.466;11.176;2022-07-18T09:01:54;7.17;;;2.40;;
4698;SDS011;33708;49.466;11.176;2022-07-18T09:04:32;9.33;;;2.50;;
4698;SDS011;33708;49.466;11.176;2022-07-18T09:07:01;10.73;;;2.23;;
4698;SDS011;33708;49.466;11.176;2022-07-18T09:09:28;13.03;;;2.20;;
4698;SDS011;33708;49.466;11.176;2022-07-18T09:12:05;6.33;;;2.07;;
4698;SDS011;33708;49.466;11.176;2022-07-18T09:17:12;8.23;;;1.83;;
4698;SDS011;33708;49.466;11.176;2022-07-18T09:19:39;9.03;;;2.63;;
4698;SDS011;33708;49.466;11.176;2022-07-18T09:22:25;10.83;;;2.57;;
4698;SDS011;33708;49.466;11.176;2022-07-18T09:30:15;8.27;;;2.47;;
4698;SDS011;33708;49.466;11.176;2022-07-18T09:32:46;8.43;;;1.50;;
4698;SDS011;33708;49.466;11.176;2022-07-18T09:35:25;5.80;;;1.67;;
4698;SDS011;33708;49.466;11.176;2022-07-18T09:40:30;5.87;;;1.73;;
4698;SDS011;33708;49.466;11.176;2022-07-18T09:42:57;8.33;;;2.20;;
4698;SDS011;33708;49.466;11.176;2022-07-18T09:45:28;7.10;;;1.70;;
4698;SDS011;33708;49.466;11.176;2022-07-18T09:47:59;7.33;;;1.47;;
4698;SDS011;33708;49.466;11.176;2022-07-18T09:50:32;8.20;;;1.83;;
4698;SDS011;33708;49.466;11.176;2022-07-18T09:53:11;5.40;;;1.50;;
4698;SDS011;33708;49.466;11.176;2022-07-18T09:55:41;5.53;;;1.33;;
4698;SDS011;33708;49.466;11.176;2022-07-18T09:58:08;5.97;;;1.87;;
4698;SDS011;33708;49.466;11.176;2022-07-18T10:00:36;7.97;;;1.63;;
4698;SDS011;33708;49.466;11.176;2022-07-18T10:03:03;7.50;;;1.97;;
4698;SDS011;33708;49.466;11.176;2022-07-18T10:05:31;5.03;;;1.50;;
4698;SDS011;33708;49.466;11.176;2022-07-18T10:07:59;6.50;;;1.87;;
4698;SDS011;33708;49.466;11.176;2022-07-18T10:10:26;6.97;;;1.67;;
4698;SDS011;33708;49.466;11.176;2022-07-18T10:12:57;7.90;;;1.87;;
4698;SDS011;33708;49.466;11.176;2022-07-18T10:15:25;7.63;;;2.00;;
4698;SDS011;33708;49.466;11.176;2022-07-18T10:17:53;5.83;;;1.60;;
4698;SDS011;33708;49.466;11.176;2022-07-18T10:20:24;5.90;;;1.60;;
4698;SDS011;33708;49.466;11.176;2022-07-18T10:22:52;8.73;;;1.63;;
4698;SDS011;33708;49.466;11.176;2022-07-18T10:25:21;7.63;;;1.47;;
4698;SDS011;33708;49.466;11.176;2022-07-18T10:27:51;7.70;;;1.63;;
4698;SDS011;33708;49.466;11.176;2022-07-18T10:33:35;19.53;;;1.80;;
4698;SDS011;33708;49.466;11.176;2022-07-18T10:36:13;7.50;;;1.67;;
4698;SDS011;33708;49.466;11.176;2022-07-18T10:41:31;7.30;;;1.90;;
4698;SDS011;33708;49.466;11.176;2022-07-18T10:43:57;5.43;;;1.33;;
4698;SDS011;33708;49.466;11.176;2022-07-18T10:46:23;11.50;;;1.60;;
4698;SDS011;33708;49.466;11.176;2022-07-18T10:51:32;6.57;;;1.40;;
4698;SDS011;33708;49.466;11.176;2022-07-18T10:54:09;11.23;;;1.00;;
4698;SDS011;33708;49.466;11.176;2022-07-18T10:59:16;4.70;;;1.30;;
4698;SDS011;33708;49.466;11.176;2022-07-18T11:01:51;6.23;;;1.50;;
4698;SDS011;33708;49.466;11.176;2022-07-18T11:04:38;4.80;;;1.20;;
4698;SDS011;33708;49.466;11.176;2022-07-18T11:07:06;5.37;;;1.20;;
4698;SDS011;33708;49.466;11.176;2022-07-18T11:09:46;7.20;;;1.30;;
4698;SDS011;33708;49.466;11.176;2022-07-18T11:12:20;5.90;;;1.27;;
4698;SDS011;33708;49.466;11.176;2022-07-18T11:20:24;7.67;;;1.67;;
4698;SDS011;33708;49.466;11.176;2022-07-18T11:22:51;5.40;;;1.50;;
4698;SDS011;33708;49.466;11.176;2022-07-18T11:25:17;9.73;;;1.50;;
4698;SDS011;33708;49.466;11.176;2022-07-18T11:27:43;8.73;;;1.80;;
4698;SDS011;33708;49.466;11.176;2022-07-18T11:30:10;7.80;;;1.50;;
4698;SDS011;33708;49.466;11.176;2022-07-18T11:32:41;5.70;;;1.20;;
4698;SDS011;33708;49.466;11.176;2022-07-18T11:35:07;6.70;;;1.40;;
4698;SDS011;33708;49.466;11.176;2022-07-18T11:37:35;4.70;;;1.10;;
4698;SDS011;33708;49.466;11.176;2022-07-18T11:40:05;8.17;;;1.47;;
4698;SDS011;33708;49.466;11.176;2022-07-18T11:42:35;6.80;;;1.80;;
4698;SDS011;33708;49.466;11.176;2022-07-18T11:45:05;9.60;;;1.50;;
4698;SDS011;33708;49.466;11.176;2022-07-18T11:47:37;5.53;;;1.33;;
4698;SDS011;33708;49.466;11.176;2022-07-18T11:50:26;7.70;;;1.60;;
4698;SDS011;33708;49.466;11.176;2022-07-18T11:53:02;7.27;;;1.20;;
4698;SDS011;33708;49.466;11.176;2022-07-18T11:55:35;5.30;;;1.33;;
4698;SDS011;33708;49.466;11.176;2022-07-18T11:58:14;6.87;;;1.70;;
4698;SDS011;33708;49.466;11.176;2022-07-18T12:00:42;8.13;;;1.33;;
4698;SDS011;33708;49.466;11.176;2022-07-18T12:03:13;5.93;;;1.37;;
4698;SDS011;33708;49.466;11.176;2022-07-18T12:05:41;7.20;;;1.47;;
4698;SDS011;33708;49.466;11.176;2022-07-18T12:11:07;5.30;;;1.43;;
4698;SDS011;33708;49.466;11.176;2022-07-18T12:13:53;4.97;;;1.37;;
4698;SDS011;33708;49.466;11.176;2022-07-18T12:18:56;7.50;;;1.43;;
4698;SDS011;33708;49.466;11.176;2022-07-18T12:21:23;6.13;;;1.40;;
4698;SDS011;33708;49.466;11.176;2022-07-18T12:23:49;5.47;;;1.50;;
4698;SDS011;33708;49.466;11.176;2022-07-18T12:26:28;5.73;;;1.30;;
4698;SDS011;33708;49.466;11.176;2022-07-18T12:29:03;5.13;;;1.30;;
4698;SDS011;33708;49.466;11.176;2022-07-18T12:34:39;5.40;;;1.30;;
4698;SDS011;33708;49.466;11.176;2022-07-18T12:37:29;8.83;;;1.77;;
4698;SDS011;33708;49.466;11.176;2022-07-18T12:39:56;5.50;;;1.40;;
4698;SDS011;33708;49.466;11.176;2022-07-18T12:42:26;7.83;;;1.60;;
4698;SDS011;33708;49.466;11.176;2022-07-18T12:44:53;5.97;;;1.50;;
4698;SDS011;33708;49.466;11.176;2022-07-18T12:47:19;7.53;;;1.47;;
4698;SDS011;33708;49.466;11.176;2022-07-18T12:49:44;13.20;;;1.60;;
4698;SDS011;33708;49.466;11.176;2022-07-18T12:52:10;5.83;;;1.60;;
4698;SDS011;33708;49.466;11.176;2022-07-18T12:54:36;6.93;;;1.23;;
4698;SDS011;33708;49.466;11.176;2022-07-18T12:57:01;8.30;;;1.50;;
4698;SDS011;33708;49.466;11.176;2022-07-18T12:59:27;5.60;;;1.50;;
4698;SDS011;33708;49.466;11.176;2022-07-18T13:01:53;8.60;;;1.50;;
4698;SDS011;33708;49.466;11.176;2022-07-18T13:04:18;7.00;;;1.47;;
4698;SDS011;33708;49.466;11.176;2022-07-18T13:06:44;5.80;;;1.80;;
4698;SDS011;33708;49.466;11.176;2022-07-18T13:09:10;11.03;;;1.23;;
4698;SDS011;33708;49.466;11.176;2022-07-18T13:11:35;14.23;;;1.43;;
4698;SDS011;33708;49.466;11.176;2022-07-18T13:14:02;6.67;;;1.53;;
4698;SDS011;33708;49.466;11.176;2022-07-18T13:16:28;9.73;;;1.97;;
4698;SDS011;33708;49.466;11.176;2022-07-18T13:18:53;7.10;;;1.30;;
4698;SDS011;33708;49.466;11.176;2022-07-18T13:21:19;6.10;;;1.50;;
4698;SDS011;33708;49.466;11.176;2022-07-18T13:23:45;5.67;;;1.40;;
4698;SDS011;33708;49.466;11.176;2022-07-18T13:26:11;6.40;;;1.60;;
4698;SDS011;33708;49.466;11.176;2022-07-18T13:28:36;5.67;;;1.40;;
4698;SDS011;33708;49.466;11.176;2022-07-18T13:31:02;6.60;;;1.20;;
4698;SDS011;33708;49.466;11.176;2022-07-18T13:33:27;7.73;;;1.30;;
4698;SDS011;33708;49.466;11.176;2022-07-18T13:35:53;6.90;;;1.73;;
4698;SDS011;33708;49.466;11.176;2022-07-18T13:38:19;5.17;;;1.33;;
4698;SDS011;33708;49.466;11.176;2022-07-18T13:40:44;6.07;;;1.40;;
4698;SDS011;33708;49.466;11.176;2022-07-18T13:43:10;7.37;;;1.47;;
4698;SDS011;33708;49.466;11.176;2022-07-18T13:45:36;5.80;;;1.70;;
4698;SDS011;33708;49.466;11.176;2022-07-18T13:48:03;11.00;;;1.57;;
4698;SDS011;33708;49.466;11.176;2022-07-18T13:50:29;7.37;;;1.60;;
4698;SDS011;33708;49.466;11.176;2022-07-18T13:52:55;7.37;;;1.27;;
4698;SDS011;33708;49.466;11.176;2022-07-18T13:55:22;10.77;;;1.60;;
4698;SDS011;33708;49.466;11.176;2022-07-18T13:57:47;4.73;;;1.07;;
4698;SDS011;33708;49.466;11.176;2022-07-18T14:00:13;6.40;;;1.33;;
4698;SDS011;33708;49.466;11.176;2022-07-18T14:02:39;6.70;;;1.20;;
4698;SDS011;33708;49.466;11.176;2022-07-18T14:05:05;8.50;;;1.30;;
4698;SDS011;33708;49.466;11.176;2022-07-18T14:07:31;6.87;;;1.80;;
4698;SDS011;33708;49.466;11.176;2022-07-18T14:09:57;7.23;;;1.23;;
4698;SDS011;33708;49.466;11.176;2022-07-18T14:12:22;10.20;;;1.93;;
4698;SDS011;33708;49.466;11.176;2022-07-18T14:14:48;6.10;;;1.33;;
4698;SDS011;33708;49.466;11.176;2022-07-18T14:17:13;11.60;;;1.17;;
4698;SDS011;33708;49.466;11.176;2022-07-18T14:19:39;6.87;;;1.67;;
4698;SDS011;33708;49.466;11.176;2022-07-18T14:22:05;9.20;;;1.33;;
4698;SDS011;33708;49.466;11.176;2022-07-18T14:24:30;6.33;;;1.00;;
4698;SDS011;33708;49.466;11.176;2022-07-18T14:26:56;6.80;;;1.40;;
4698;SDS011;33708;49.466;11.176;2022-07-18T14:29:21;5.73;;;1.30;;
4698;SDS011;33708;49.466;11.176;2022-07-18T14:31:47;5.07;;;1.20;;
4698;SDS011;33708;49.466;11.176;2022-07-18T14:34:13;5.40;;;1.57;;
4698;SDS011;33708;49.466;11.176;2022-07-18T14:36:38;5.47;;;1.40;;
4698;SDS011;33708;49.466;11.176;2022-07-18T14:39:04;7.73;;;1.37;;
4698;SDS011;33708;49.466;11.176;2022-07-18T14:41:30;5.30;;;1.40;;
4698;SDS011;33708;49.466;11.176;2022-07-18T14:43:55;5.43;;;1.37;;
4698;SDS011;33708;49.466;11.176;2022-07-18T14:46:21;11.67;;;1.60;;
4698;SDS011;33708;49.466;11.176;2022-07-18T14:48:46;7.77;;;1.63;;
4698;SDS011;33708;49.466;11.176;2022-07-18T14:51:16;5.73;;;1.30;;
4698;SDS011;33708;49.466;11.176;2022-07-18T14:53:42;6.53;;;1.30;;
4698;SDS011;33708;49.466;11.176;2022-07-18T14:56:08;6.27;;;1.43;;
4698;SDS011;33708;49.466;11.176;2022-07-18T14:58:34;4.80;;;1.20;;
4698;SDS011;33708;49.466;11.176;2022-07-18T15:00:59;4.67;;;1.20;;
4698;SDS011;33708;49.466;11.176;2022-07-18T15:03:25;5.63;;;1.50;;
4698;SDS011;33708;49.466;11.176;2022-07-18T15:05:51;5.30;;;1.20;;
4698;SDS011;33708;49.466;11.176;2022-07-18T15:08:16;5.03;;;1.30;;
4698;SDS011;33708;49.466;11.176;2022-07-18T15:10:42;5.47;;;1.37;;
4698;SDS011;33708;49.466;11.176;2022-07-18T15:13:07;5.53;;;1.27;;
4698;SDS011;33708;49.466;11.176;2022-07-18T15:15:33;6.50;;;1.30;;
4698;SDS011;33708;49.466;11.176;2022-07-18T15:17:58;9.40;;;1.47;;